Falls International Airport International Falls US
ICAO: KINL
IATA: INL
Category: Medium
Scheduled Services: Yes

Elevation: 1185 ft
TransAlt. 18000 ft.

Airport Communications:
ASOS:120
MINNEAPOLIS CNTR:120.9
PRINCETON RDO:123.6
CTAF/UNICOM:122.8

KINL Zoom In..

If you have problems with the map follow the link
https://www.worldairports.se/pages/airport.php?
ICAO=KINL

Runways:

(A) RW 04 length 2999 ft width 75 ft
---- / hdg 39

(B) RW 13 length 7400 ft width 150 ft
ILS 109.10 / hdg 133

(C) RW 22 length 2999 ft width 75 ft
---- / hdg 219

(D) RW 31 length 7400 ft width 150 ft
ILS 111.95 / hdg 313

Location; KINL
Day. 21 / Time. 17.55 Zulu
* Altimeter: 29.93
* Temperature: 08° c. 46.4°f.
* Wind from: 280° Speed 07 kn with Gusts up to 14 kn.
Dewpoint: -04° c.
Visibility: 10 Statute Miles.
Clouds: Clear (automated report).

KINL 211755Z AUTO 28007G14KT 10SM CLR 08/M04 A2993 RMK AO2 SLP149 T00781044 10078 21006 56016 VISNO RWY 31


Wind From 280°
Speed 07 kn.

 
 
jpsmedia.com for Web Design worldairports.se 2018   terms of use